sensor_id;sensor_type;location;lat;lon;timestamp;P1;durP1;ratioP1;P2;durP2;ratioP2
77430;SDS011;66498;48.564;19.272;2023-04-03T00:01:28;7.80;;;5.50;;
77430;SDS011;66498;48.564;19.272;2023-04-03T00:03:54;7.03;;;5.30;;
77430;SDS011;66498;48.564;19.272;2023-04-03T00:06:19;6.47;;;4.57;;
77430;SDS011;66498;48.564;19.272;2023-04-03T00:08:45;9.60;;;4.90;;
77430;SDS011;66498;48.564;19.272;2023-04-03T00:11:11;7.53;;;5.45;;
77430;SDS011;66498;48.564;19.272;2023-04-03T00:13:36;6.30;;;4.65;;
77430;SDS011;66498;48.564;19.272;2023-04-03T00:16:02;5.70;;;4.32;;
77430;SDS011;66498;48.564;19.272;2023-04-03T00:18:28;6.72;;;4.50;;
77430;SDS011;66498;48.564;19.272;2023-04-03T00:20:54;7.00;;;4.70;;
77430;SDS011;66498;48.564;19.272;2023-04-03T00:23:19;7.00;;;5.05;;
77430;SDS011;66498;48.564;19.272;2023-04-03T00:25:45;6.97;;;5.05;;
77430;SDS011;66498;48.564;19.272;2023-04-03T00:28:11;6.93;;;5.10;;
77430;SDS011;66498;48.564;19.272;2023-04-03T00:30:36;6.68;;;4.60;;
77430;SDS011;66498;48.564;19.272;2023-04-03T00:33:02;7.82;;;5.15;;
77430;SDS011;66498;48.564;19.272;2023-04-03T00:35:27;7.55;;;5.28;;
77430;SDS011;66498;48.564;19.272;2023-04-03T00:37:53;7.43;;;4.63;;
77430;SDS011;66498;48.564;19.272;2023-04-03T00:40:21;7.57;;;5.05;;
77430;SDS011;66498;48.564;19.272;2023-04-03T00:42:48;6.55;;;4.70;;
77430;SDS011;66498;48.564;19.272;2023-04-03T00:45:24;5.82;;;4.32;;
77430;SDS011;66498;48.564;19.272;2023-04-03T00:47:56;6.68;;;4.80;;
77430;SDS011;66498;48.564;19.272;2023-04-03T00:50:25;6.38;;;4.60;;
77430;SDS011;66498;48.564;19.272;2023-04-03T00:52:52;5.18;;;3.78;;
77430;SDS011;66498;48.564;19.272;2023-04-03T00:55:18;6.25;;;4.45;;
77430;SDS011;66498;48.564;19.272;2023-04-03T00:57:44;6.03;;;4.38;;
77430;SDS011;66498;48.564;19.272;2023-04-03T01:00:12;5.90;;;4.28;;
77430;SDS011;66498;48.564;19.272;2023-04-03T01:02:39;5.50;;;3.85;;
77430;SDS011;66498;48.564;19.272;2023-04-03T01:05:06;5.40;;;3.72;;
77430;SDS011;66498;48.564;19.272;2023-04-03T01:07:32;5.75;;;3.92;;
77430;SDS011;66498;48.564;19.272;2023-04-03T01:10:01;5.35;;;3.85;;
77430;SDS011;66498;48.564;19.272;2023-04-03T01:12:38;5.70;;;4.20;;
77430;SDS011;66498;48.564;19.272;2023-04-03T01:15:06;5.25;;;3.58;;
77430;SDS011;66498;48.564;19.272;2023-04-03T01:25:41;5.53;;;3.83;;
77430;SDS011;66498;48.564;19.272;2023-04-03T01:28:31;5.55;;;4.00;;
77430;SDS011;66498;48.564;19.272;2023-04-03T01:33:44;6.05;;;4.05;;
77430;SDS011;66498;48.564;19.272;2023-04-03T01:36:11;6.10;;;4.22;;
77430;SDS011;66498;48.564;19.272;2023-04-03T01:38:40;6.68;;;4.35;;
77430;SDS011;66498;48.564;19.272;2023-04-03T01:41:06;5.82;;;4.13;;
77430;SDS011;66498;48.564;19.272;2023-04-03T01:43:31;5.68;;;4.35;;
77430;SDS011;66498;48.564;19.272;2023-04-03T01:45:57;5.47;;;4.30;;
77430;SDS011;66498;48.564;19.272;2023-04-03T01:48:22;7.82;;;5.03;;
77430;SDS011;66498;48.564;19.272;2023-04-03T01:50:48;7.28;;;4.75;;
77430;SDS011;66498;48.564;19.272;2023-04-03T01:53:13;7.03;;;4.53;;
77430;SDS011;66498;48.564;19.272;2023-04-03T01:55:39;6.80;;;5.00;;
77430;SDS011;66498;48.564;19.272;2023-04-03T01:58:05;7.53;;;4.95;;
77430;SDS011;66498;48.564;19.272;2023-04-03T02:00:30;7.03;;;4.78;;
77430;SDS011;66498;48.564;19.272;2023-04-03T02:02:56;6.57;;;4.90;;
77430;SDS011;66498;48.564;19.272;2023-04-03T02:05:21;6.95;;;5.18;;
77430;SDS011;66498;48.564;19.272;2023-04-03T02:07:47;7.20;;;5.22;;
77430;SDS011;66498;48.564;19.272;2023-04-03T02:10:13;8.30;;;5.68;;
77430;SDS011;66498;48.564;19.272;2023-04-03T02:12:38;7.70;;;5.15;;
77430;SDS011;66498;48.564;19.272;2023-04-03T02:15:04;7.10;;;5.30;;
77430;SDS011;66498;48.564;19.272;2023-04-03T02:17:30;5.68;;;4.47;;
77430;SDS011;66498;48.564;19.272;2023-04-03T02:19:55;5.97;;;3.83;;
77430;SDS011;66498;48.564;19.272;2023-04-03T02:22:21;5.93;;;4.40;;
77430;SDS011;66498;48.564;19.272;2023-04-03T02:24:46;6.75;;;4.07;;
77430;SDS011;66498;48.564;19.272;2023-04-03T02:27:12;6.07;;;4.10;;
77430;SDS011;66498;48.564;19.272;2023-04-03T02:29:37;5.80;;;4.10;;
77430;SDS011;66498;48.564;19.272;2023-04-03T02:32:03;4.78;;;3.28;;
77430;SDS011;66498;48.564;19.272;2023-04-03T02:34:29;5.25;;;3.58;;
77430;SDS011;66498;48.564;19.272;2023-04-03T02:36:55;6.85;;;4.28;;
77430;SDS011;66498;48.564;19.272;2023-04-03T02:39:20;6.45;;;4.40;;
77430;SDS011;66498;48.564;19.272;2023-04-03T02:41:45;5.65;;;4.00;;
77430;SDS011;66498;48.564;19.272;2023-04-03T02:44:11;5.30;;;4.05;;
77430;SDS011;66498;48.564;19.272;2023-04-03T02:46:37;5.07;;;3.40;;
77430;SDS011;66498;48.564;19.272;2023-04-03T02:49:02;5.55;;;3.60;;
77430;SDS011;66498;48.564;19.272;2023-04-03T02:51:29;6.60;;;3.70;;
77430;SDS011;66498;48.564;19.272;2023-04-03T02:53:54;5.18;;;3.38;;
77430;SDS011;66498;48.564;19.272;2023-04-03T02:56:20;5.15;;;3.38;;
77430;SDS011;66498;48.564;19.272;2023-04-03T02:58:46;4.13;;;3.30;;
77430;SDS011;66498;48.564;19.272;2023-04-03T03:01:11;4.93;;;3.60;;
77430;SDS011;66498;48.564;19.272;2023-04-03T03:03:37;5.97;;;3.67;;
77430;SDS011;66498;48.564;19.272;2023-04-03T03:06:13;4.18;;;3.47;;
77430;SDS011;66498;48.564;19.272;2023-04-03T03:08:40;5.35;;;3.60;;
77430;SDS011;66498;48.564;19.272;2023-04-03T03:11:06;5.35;;;3.83;;
77430;SDS011;66498;48.564;19.272;2023-04-03T03:13:32;5.03;;;3.58;;
77430;SDS011;66498;48.564;19.272;2023-04-03T03:15:59;5.38;;;3.85;;
77430;SDS011;66498;48.564;19.272;2023-04-03T03:18:25;4.85;;;3.60;;
77430;SDS011;66498;48.564;19.272;2023-04-03T03:20:58;5.13;;;3.63;;
77430;SDS011;66498;48.564;19.272;2023-04-03T03:23:25;5.75;;;3.50;;
77430;SDS011;66498;48.564;19.272;2023-04-03T03:25:56;4.38;;;3.30;;
77430;SDS011;66498;48.564;19.272;2023-04-03T03:28:23;4.85;;;3.28;;
77430;SDS011;66498;48.564;19.272;2023-04-03T03:30:48;5.60;;;3.25;;
77430;SDS011;66498;48.564;19.272;2023-04-03T03:33:14;5.82;;;3.90;;
77430;SDS011;66498;48.564;19.272;2023-04-03T03:35:40;6.70;;;4.10;;
77430;SDS011;66498;48.564;19.272;2023-04-03T03:38:05;5.03;;;3.58;;
77430;SDS011;66498;48.564;19.272;2023-04-03T03:40:31;4.20;;;3.08;;
77430;SDS011;66498;48.564;19.272;2023-04-03T03:42:56;4.00;;;2.85;;
77430;SDS011;66498;48.564;19.272;2023-04-03T03:45:22;8.50;;;2.90;;
77430;SDS011;66498;48.564;19.272;2023-04-03T03:47:47;4.28;;;3.13;;
77430;SDS011;66498;48.564;19.272;2023-04-03T03:50:13;4.40;;;2.80;;
77430;SDS011;66498;48.564;19.272;2023-04-03T03:52:38;4.60;;;3.13;;
77430;SDS011;66498;48.564;19.272;2023-04-03T03:55:04;3.83;;;2.50;;
77430;SDS011;66498;48.564;19.272;2023-04-03T03:57:30;3.88;;;3.10;;
77430;SDS011;66498;48.564;19.272;2023-04-03T03:59:56;3.13;;;2.35;;
77430;SDS011;66498;48.564;19.272;2023-04-03T04:02:21;6.18;;;2.80;;
77430;SDS011;66498;48.564;19.272;2023-04-03T04:04:47;3.28;;;2.53;;
77430;SDS011;66498;48.564;19.272;2023-04-03T04:07:13;3.55;;;2.60;;
77430;SDS011;66498;48.564;19.272;2023-04-03T04:09:39;4.63;;;3.05;;
77430;SDS011;66498;48.564;19.272;2023-04-03T04:12:05;4.97;;;2.58;;
77430;SDS011;66498;48.564;19.272;2023-04-03T04:14:31;4.45;;;2.90;;
77430;SDS011;66498;48.564;19.272;2023-04-03T04:16:56;6.60;;;3.28;;
77430;SDS011;66498;48.564;19.272;2023-04-03T04:19:22;5.68;;;2.78;;
77430;SDS011;66498;48.564;19.272;2023-04-03T04:21:47;8.98;;;3.95;;
77430;SDS011;66498;48.564;19.272;2023-04-03T04:24:13;5.93;;;2.75;;
77430;SDS011;66498;48.564;19.272;2023-04-03T04:26:38;3.85;;;2.63;;
77430;SDS011;66498;48.564;19.272;2023-04-03T04:29:03;2.97;;;2.50;;
77430;SDS011;66498;48.564;19.272;2023-04-03T04:31:29;3.22;;;2.38;;
77430;SDS011;66498;48.564;19.272;2023-04-03T04:33:54;2.70;;;1.88;;
77430;SDS011;66498;48.564;19.272;2023-04-03T04:36:20;2.22;;;1.80;;
77430;SDS011;66498;48.564;19.272;2023-04-03T04:38:46;2.42;;;2.05;;
77430;SDS011;66498;48.564;19.272;2023-04-03T04:41:11;2.33;;;1.90;;
77430;SDS011;66498;48.564;19.272;2023-04-03T04:43:37;2.65;;;2.00;;
77430;SDS011;66498;48.564;19.272;2023-04-03T04:46:03;2.10;;;1.90;;
77430;SDS011;66498;48.564;19.272;2023-04-03T04:48:30;2.47;;;1.88;;
77430;SDS011;66498;48.564;19.272;2023-04-03T04:50:56;4.25;;;1.73;;
77430;SDS011;66498;48.564;19.272;2023-04-03T04:53:21;2.10;;;1.80;;
77430;SDS011;66498;48.564;19.272;2023-04-03T04:55:47;2.13;;;1.77;;
77430;SDS011;66498;48.564;19.272;2023-04-03T04:58:13;2.03;;;1.73;;
77430;SDS011;66498;48.564;19.272;2023-04-03T05:00:38;2.65;;;1.80;;
77430;SDS011;66498;48.564;19.272;2023-04-03T05:03:04;2.88;;;2.00;;
77430;SDS011;66498;48.564;19.272;2023-04-03T05:05:29;2.22;;;1.90;;
77430;SDS011;66498;48.564;19.272;2023-04-03T05:07:55;2.30;;;1.83;;
77430;SDS011;66498;48.564;19.272;2023-04-03T05:10:20;3.35;;;2.10;;
77430;SDS011;66498;48.564;19.272;2023-04-03T05:12:46;1.80;;;1.70;;
77430;SDS011;66498;48.564;19.272;2023-04-03T05:15:11;2.25;;;1.90;;
77430;SDS011;66498;48.564;19.272;2023-04-03T05:17:37;3.78;;;2.55;;
77430;SDS011;66498;48.564;19.272;2023-04-03T05:20:03;10.68;;;3.30;;
77430;SDS011;66498;48.564;19.272;2023-04-03T05:22:29;4.13;;;2.40;;
77430;SDS011;66498;48.564;19.272;2023-04-03T05:24:55;2.85;;;1.90;;
77430;SDS011;66498;48.564;19.272;2023-04-03T05:27:21;3.92;;;2.30;;
77430;SDS011;66498;48.564;19.272;2023-04-03T05:29:49;1.80;;;1.40;;
77430;SDS011;66498;48.564;19.272;2023-04-03T05:32:15;1.25;;;1.15;;
77430;SDS011;66498;48.564;19.272;2023-04-03T05:34:41;1.08;;;1.00;;
77430;SDS011;66498;48.564;19.272;2023-04-03T05:37:07;1.25;;;1.15;;
77430;SDS011;66498;48.564;19.272;2023-04-03T05:39:32;1.02;;;1.02;;
77430;SDS011;66498;48.564;19.272;2023-04-03T05:41:58;1.20;;;1.10;;
77430;SDS011;66498;48.564;19.272;2023-04-03T05:44:24;1.25;;;1.15;;
77430;SDS011;66498;48.564;19.272;2023-04-03T05:46:49;1.70;;;1.58;;
77430;SDS011;66498;48.564;19.272;2023-04-03T05:49:15;0.85;;;0.85;;
77430;SDS011;66498;48.564;19.272;2023-04-03T05:51:41;1.02;;;1.00;;
77430;SDS011;66498;48.564;19.272;2023-04-03T05:54:13;1.00;;;1.00;;
77430;SDS011;66498;48.564;19.272;2023-04-03T05:56:48;0.80;;;0.80;;
77430;SDS011;66498;48.564;19.272;2023-04-03T05:59:14;0.93;;;0.93;;
77430;SDS011;66498;48.564;19.272;2023-04-03T06:01:41;1.10;;;1.00;;
77430;SDS011;66498;48.564;19.272;2023-04-03T06:04:06;0.80;;;0.80;;
77430;SDS011;66498;48.564;19.272;2023-04-03T06:09:13;0.90;;;0.90;;
77430;SDS011;66498;48.564;19.272;2023-04-03T06:11:39;0.80;;;0.80;;
77430;SDS011;66498;48.564;19.272;2023-04-03T06:14:05;1.25;;;1.10;;
77430;SDS011;66498;48.564;19.272;2023-04-03T06:16:31;3.25;;;1.13;;
77430;SDS011;66498;48.564;19.272;2023-04-03T06:18:57;0.80;;;0.80;;
77430;SDS011;66498;48.564;19.272;2023-04-03T06:21:22;0.90;;;0.90;;
77430;SDS011;66498;48.564;19.272;2023-04-03T06:23:48;1.10;;;1.10;;
77430;SDS011;66498;48.564;19.272;2023-04-03T06:26:13;1.38;;;1.08;;
77430;SDS011;66498;48.564;19.272;2023-04-03T06:28:39;0.88;;;0.88;;
77430;SDS011;66498;48.564;19.272;2023-04-03T06:31:05;2.78;;;1.23;;
77430;SDS011;66498;48.564;19.272;2023-04-03T06:33:31;1.00;;;1.00;;
77430;SDS011;66498;48.564;19.272;2023-04-03T06:36:00;1.40;;;1.30;;
77430;SDS011;66498;48.564;19.272;2023-04-03T06:38:29;1.05;;;1.05;;
77430;SDS011;66498;48.564;19.272;2023-04-03T06:40:55;1.02;;;1.00;;
77430;SDS011;66498;48.564;19.272;2023-04-03T06:43:21;1.48;;;1.38;;
77430;SDS011;66498;48.564;19.272;2023-04-03T06:45:47;1.30;;;1.20;;
77430;SDS011;66498;48.564;19.272;2023-04-03T06:48:12;1.33;;;1.20;;
77430;SDS011;66498;48.564;19.272;2023-04-03T06:50:38;1.20;;;1.10;;
77430;SDS011;66498;48.564;19.272;2023-04-03T06:53:03;1.33;;;1.20;;
77430;SDS011;66498;48.564;19.272;2023-04-03T06:55:29;1.30;;;1.20;;
77430;SDS011;66498;48.564;19.272;2023-04-03T06:57:54;1.05;;;1.05;;
77430;SDS011;66498;48.564;19.272;2023-04-03T07:00:20;1.20;;;1.10;;
77430;SDS011;66498;48.564;19.272;2023-04-03T07:02:46;1.42;;;1.23;;
77430;SDS011;66498;48.564;19.272;2023-04-03T07:05:11;1.30;;;1.20;;
77430;SDS011;66498;48.564;19.272;2023-04-03T07:07:38;1.35;;;1.25;;
77430;SDS011;66498;48.564;19.272;2023-04-03T07:10:04;0.90;;;0.90;;
77430;SDS011;66498;48.564;19.272;2023-04-03T07:12:31;1.17;;;1.13;;
77430;SDS011;66498;48.564;19.272;2023-04-03T07:14:59;1.20;;;1.10;;
77430;SDS011;66498;48.564;19.272;2023-04-03T07:17:25;0.82;;;0.82;;
77430;SDS011;66498;48.564;19.272;2023-04-03T07:19:51;1.50;;;1.10;;
77430;SDS011;66498;48.564;19.272;2023-04-03T07:22:16;1.17;;;1.08;;
77430;SDS011;66498;48.564;19.272;2023-04-03T07:24:42;1.63;;;1.00;;
77430;SDS011;66498;48.564;19.272;2023-04-03T07:27:08;1.05;;;1.05;;
77430;SDS011;66498;48.564;19.272;2023-04-03T07:29:34;1.00;;;1.00;;
77430;SDS011;66498;48.564;19.272;2023-04-03T07:32:00;1.10;;;1.10;;
77430;SDS011;66498;48.564;19.272;2023-04-03T07:34:26;1.08;;;1.00;;
77430;SDS011;66498;48.564;19.272;2023-04-03T07:36:51;0.90;;;0.90;;
77430;SDS011;66498;48.564;19.272;2023-04-03T07:39:17;1.23;;;1.10;;
77430;SDS011;66498;48.564;19.272;2023-04-03T07:41:43;1.00;;;1.00;;
77430;SDS011;66498;48.564;19.272;2023-04-03T07:44:08;0.88;;;0.88;;
77430;SDS011;66498;48.564;19.272;2023-04-03T07:46:37;0.90;;;0.90;;
77430;SDS011;66498;48.564;19.272;2023-04-03T07:49:03;1.05;;;1.05;;
77430;SDS011;66498;48.564;19.272;2023-04-03T07:51:29;1.15;;;1.05;;
77430;SDS011;66498;48.564;19.272;2023-04-03T07:53:55;1.10;;;1.10;;
77430;SDS011;66498;48.564;19.272;2023-04-03T07:56:20;0.98;;;0.98;;
77430;SDS011;66498;48.564;19.272;2023-04-03T07:58:46;11.57;;;8.57;;
77430;SDS011;66498;48.564;19.272;2023-04-03T08:01:11;1.15;;;1.10;;
77430;SDS011;66498;48.564;19.272;2023-04-03T08:03:38;1.00;;;0.90;;
77430;SDS011;66498;48.564;19.272;2023-04-03T08:06:05;0.93;;;0.93;;
77430;SDS011;66498;48.564;19.272;2023-04-03T08:08:32;1.00;;;1.00;;
77430;SDS011;66498;48.564;19.272;2023-04-03T08:10:59;0.98;;;0.98;;
77430;SDS011;66498;48.564;19.272;2023-04-03T08:13:27;1.05;;;1.05;;
77430;SDS011;66498;48.564;19.272;2023-04-03T08:15:54;0.90;;;0.90;;
77430;SDS011;66498;48.564;19.272;2023-04-03T08:18:22;1.00;;;1.00;;
77430;SDS011;66498;48.564;19.272;2023-04-03T08:20:49;1.00;;;1.00;;
77430;SDS011;66498;48.564;19.272;2023-04-03T08:23:16;1.30;;;1.20;;
77430;SDS011;66498;48.564;19.272;2023-04-03T08:25:42;1.13;;;1.02;;
77430;SDS011;66498;48.564;19.272;2023-04-03T08:28:08;1.10;;;1.10;;
77430;SDS011;66498;48.564;19.272;2023-04-03T08:30:37;1.02;;;1.02;;
77430;SDS011;66498;48.564;19.272;2023-04-03T08:33:04;1.90;;;1.27;;
77430;SDS011;66498;48.564;19.272;2023-04-03T08:35:30;1.00;;;1.00;;
77430;SDS011;66498;48.564;19.272;2023-04-03T08:37:55;1.23;;;1.13;;
77430;SDS011;66498;48.564;19.272;2023-04-03T08:40:21;1.05;;;1.05;;
77430;SDS011;66498;48.564;19.272;2023-04-03T08:48:11;1.00;;;1.00;;
77430;SDS011;66498;48.564;19.272;2023-04-03T08:50:43;3.05;;;2.10;;
77430;SDS011;66498;48.564;19.272;2023-04-03T08:53:32;1.63;;;1.30;;
77430;SDS011;66498;48.564;19.272;2023-04-03T08:56:02;2.05;;;1.70;;
77430;SDS011;66498;48.564;19.272;2023-04-03T09:01:33;2.15;;;1.63;;
77430;SDS011;66498;48.564;19.272;2023-04-03T09:04:00;1.63;;;1.50;;
77430;SDS011;66498;48.564;19.272;2023-04-03T09:06:28;1.17;;;1.10;;
77430;SDS011;66498;48.564;19.272;2023-04-03T09:17:25;1.52;;;0.90;;
77430;SDS011;66498;48.564;19.272;2023-04-03T09:20:22;1.10;;;1.10;;
77430;SDS011;66498;48.564;19.272;2023-04-03T09:22:59;1.33;;;1.20;;
77430;SDS011;66498;48.564;19.272;2023-04-03T09:25:25;0.88;;;0.88;;
77430;SDS011;66498;48.564;19.272;2023-04-03T09:27:59;2.03;;;1.20;;
77430;SDS011;66498;48.564;19.272;2023-04-03T09:30:26;1.00;;;1.00;;
77430;SDS011;66498;48.564;19.272;2023-04-03T09:32:54;1.33;;;1.13;;
77430;SDS011;66498;48.564;19.272;2023-04-03T09:35:25;1.42;;;1.27;;
77430;SDS011;66498;48.564;19.272;2023-04-03T09:37:53;1.50;;;1.40;;
77430;SDS011;66498;48.564;19.272;2023-04-03T09:42:50;1.02;;;1.02;;
77430;SDS011;66498;48.564;19.272;2023-04-03T09:45:24;1.20;;;1.10;;
77430;SDS011;66498;48.564;19.272;2023-04-03T09:53:33;1.02;;;1.02;;
77430;SDS011;66498;48.564;19.272;2023-04-03T09:58:40;1.25;;;1.20;;
77430;SDS011;66498;48.564;19.272;2023-04-03T10:01:22;1.00;;;1.00;;
77430;SDS011;66498;48.564;19.272;2023-04-03T10:04:14;1.08;;;0.98;;
77430;SDS011;66498;48.564;19.272;2023-04-03T10:06:46;1.35;;;1.15;;
77430;SDS011;66498;48.564;19.272;2023-04-03T10:09:27;1.00;;;0.90;;
77430;SDS011;66498;48.564;19.272;2023-04-03T10:14:26;0.90;;;0.90;;
77430;SDS011;66498;48.564;19.272;2023-04-03T10:16:56;1.33;;;1.23;;
77430;SDS011;66498;48.564;19.272;2023-04-03T10:24:57;1.38;;;1.20;;
77430;SDS011;66498;48.564;19.272;2023-04-03T10:30:25;1.85;;;1.65;;
77430;SDS011;66498;48.564;19.272;2023-04-03T10:41:07;1.48;;;1.38;;
77430;SDS011;66498;48.564;19.272;2023-04-03T10:43:49;2.53;;;1.80;;
77430;SDS011;66498;48.564;19.272;2023-04-03T10:47:02;1.20;;;1.20;;
77430;SDS011;66498;48.564;19.272;2023-04-03T10:54:38;1.40;;;1.30;;
77430;SDS011;66498;48.564;19.272;2023-04-03T10:57:11;1.55;;;1.45;;
77430;SDS011;66498;48.564;19.272;2023-04-03T10:59:47;1.75;;;1.60;;
77430;SDS011;66498;48.564;19.272;2023-04-03T11:02:27;1.30;;;1.20;;
77430;SDS011;66498;48.564;19.272;2023-04-03T11:05:01;1.55;;;1.40;;
77430;SDS011;66498;48.564;19.272;2023-04-03T11:07:42;1.33;;;1.23;;
77430;SDS011;66498;48.564;19.272;2023-04-03T11:13:10;1.57;;;1.30;;
77430;SDS011;66498;48.564;19.272;2023-04-03T11:15:39;2.20;;;1.27;;
77430;SDS011;66498;48.564;19.272;2023-04-03T11:18:06;1.45;;;1.35;;
77430;SDS011;66498;48.564;19.272;2023-04-03T11:20:41;1.23;;;1.13;;
77430;SDS011;66498;48.564;19.272;2023-04-03T11:25:51;1.10;;;1.10;;
77430;SDS011;66498;48.564;19.272;2023-04-03T11:28:20;1.60;;;1.50;;
77430;SDS011;66498;48.564;19.272;2023-04-03T11:30:47;1.13;;;1.00;;
77430;SDS011;66498;48.564;19.272;2023-04-03T11:33:36;1.85;;;1.48;;
77430;SDS011;66498;48.564;19.272;2023-04-03T11:36:23;1.83;;;1.27;;
77430;SDS011;66498;48.564;19.272;2023-04-03T11:38:55;1.52;;;1.42;;
77430;SDS011;66498;48.564;19.272;2023-04-03T11:41:28;2.38;;;1.73;;
77430;SDS011;66498;48.564;19.272;2023-04-03T11:44:03;1.95;;;1.60;;
77430;SDS011;66498;48.564;19.272;2023-04-03T11:46:53;2.15;;;1.45;;
77430;SDS011;66498;48.564;19.272;2023-04-03T12:03:32;1.38;;;1.23;;
77430;SDS011;66498;48.564;19.272;2023-04-03T12:19:47;2.13;;;1.50;;
77430;SDS011;66498;48.564;19.272;2023-04-03T12:24:50;1.67;;;1.45;;
77430;SDS011;66498;48.564;19.272;2023-04-03T12:27:21;2.08;;;1.70;;
77430;SDS011;66498;48.564;19.272;2023-04-03T12:29:54;1.45;;;1.35;;
77430;SDS011;66498;48.564;19.272;2023-04-03T12:46:38;1.60;;;1.50;;
77430;SDS011;66498;48.564;19.272;2023-04-03T12:49:14;1.45;;;1.30;;
77430;SDS011;66498;48.564;19.272;2023-04-03T12:51:51;1.52;;;1.42;;
77430;SDS011;66498;48.564;19.272;2023-04-03T12:54:29;3.30;;;1.33;;
77430;SDS011;66498;48.564;19.272;2023-04-03T12:59:47;2.00;;;1.48;;
77430;SDS011;66498;48.564;19.272;2023-04-03T13:04:50;1.58;;;1.27;;
77430;SDS011;66498;48.564;19.272;2023-04-03T13:07:24;3.70;;;1.90;;
77430;SDS011;66498;48.564;19.272;2023-04-03T13:10:18;4.43;;;1.70;;
77430;SDS011;66498;48.564;19.272;2023-04-03T13:17:46;3.13;;;1.80;;
77430;SDS011;66498;48.564;19.272;2023-04-03T13:20:19;2.03;;;1.60;;
77430;SDS011;66498;48.564;19.272;2023-04-03T13:25:34;2.90;;;1.73;;
77430;SDS011;66498;48.564;19.272;2023-04-03T13:28:05;2.72;;;2.10;;
77430;SDS011;66498;48.564;19.272;2023-04-03T13:30:36;1.60;;;1.50;;
77430;SDS011;66498;48.564;19.272;2023-04-03T13:33:04;2.22;;;1.52;;
77430;SDS011;66498;48.564;19.272;2023-04-03T13:35:42;2.75;;;1.65;;
77430;SDS011;66498;48.564;19.272;2023-04-03T13:38:22;2.30;;;1.70;;
77430;SDS011;66498;48.564;19.272;2023-04-03T13:40:54;3.00;;;1.90;;
77430;SDS011;66498;48.564;19.272;2023-04-03T13:43:33;1.67;;;1.50;;
77430;SDS011;66498;48.564;19.272;2023-04-03T13:48:34;1.45;;;1.33;;
77430;SDS011;66498;48.564;19.272;2023-04-03T13:51:27;2.78;;;1.70;;
77430;SDS011;66498;48.564;19.272;2023-04-03T13:56:40;3.42;;;2.10;;
77430;SDS011;66498;48.564;19.272;2023-04-03T14:01:42;3.30;;;2.13;;
77430;SDS011;66498;48.564;19.272;2023-04-03T14:04:16;1.63;;;1.50;;
77430;SDS011;66498;48.564;19.272;2023-04-03T14:06:45;1.98;;;1.77;;
77430;SDS011;66498;48.564;19.272;2023-04-03T14:09:12;4.03;;;1.70;;
77430;SDS011;66498;48.564;19.272;2023-04-03T14:11:39;2.47;;;1.63;;
77430;SDS011;66498;48.564;19.272;2023-04-03T14:14:13;1.83;;;1.60;;
77430;SDS011;66498;48.564;19.272;2023-04-03T14:16:48;2.50;;;1.77;;
77430;SDS011;66498;48.564;19.272;2023-04-03T14:19:19;3.47;;;2.22;;
77430;SDS011;66498;48.564;19.272;2023-04-03T14:21:47;2.25;;;1.45;;
77430;SDS011;66498;48.564;19.272;2023-04-03T14:24:13;3.03;;;2.00;;
77430;SDS011;66498;48.564;19.272;2023-04-03T14:26:39;1.60;;;1.50;;
77430;SDS011;66498;48.564;19.272;2023-04-03T14:29:06;3.15;;;1.70;;
77430;SDS011;66498;48.564;19.272;2023-04-03T14:31:31;4.43;;;1.77;;
77430;SDS011;66498;48.564;19.272;2023-04-03T14:33:57;2.78;;;1.67;;
77430;SDS011;66498;48.564;19.272;2023-04-03T14:36:26;3.22;;;1.52;;
77430;SDS011;66498;48.564;19.272;2023-04-03T14:38:54;2.63;;;1.60;;
77430;SDS011;66498;48.564;19.272;2023-04-03T14:41:21;2.60;;;2.00;;
77430;SDS011;66498;48.564;19.272;2023-04-03T14:43:49;1.77;;;1.65;;
77430;SDS011;66498;48.564;19.272;2023-04-03T14:48:51;3.55;;;1.75;;
77430;SDS011;66498;48.564;19.272;2023-04-03T14:51:17;2.35;;;1.88;;
77430;SDS011;66498;48.564;19.272;2023-04-03T14:53:43;2.10;;;1.80;;
77430;SDS011;66498;48.564;19.272;2023-04-03T14:56:16;2.25;;;1.95;;
77430;SDS011;66498;48.564;19.272;2023-04-03T14:58:43;3.63;;;1.73;;
77430;SDS011;66498;48.564;19.272;2023-04-03T15:01:14;2.53;;;1.77;;
77430;SDS011;66498;48.564;19.272;2023-04-03T15:03:42;2.88;;;1.92;;
77430;SDS011;66498;48.564;19.272;2023-04-03T15:06:09;4.10;;;2.20;;
77430;SDS011;66498;48.564;19.272;2023-04-03T15:08:36;2.80;;;1.83;;
77430;SDS011;66498;48.564;19.272;2023-04-03T15:11:02;2.25;;;1.58;;
77430;SDS011;66498;48.564;19.272;2023-04-03T15:13:28;4.25;;;1.40;;
77430;SDS011;66498;48.564;19.272;2023-04-03T15:15:54;1.52;;;1.40;;
77430;SDS011;66498;48.564;19.272;2023-04-03T15:18:21;1.67;;;1.58;;
77430;SDS011;66498;48.564;19.272;2023-04-03T15:20:51;1.52;;;1.42;;
77430;SDS011;66498;48.564;19.272;2023-04-03T15:23:17;2.13;;;1.67;;
77430;SDS011;66498;48.564;19.272;2023-04-03T15:25:47;2.22;;;1.63;;
77430;SDS011;66498;48.564;19.272;2023-04-03T15:28:17;2.90;;;1.92;;
77430;SDS011;66498;48.564;19.272;2023-04-03T15:30:47;3.17;;;1.95;;
77430;SDS011;66498;48.564;19.272;2023-04-03T15:33:13;2.63;;;2.03;;
77430;SDS011;66498;48.564;19.272;2023-04-03T15:35:40;2.42;;;1.70;;
77430;SDS011;66498;48.564;19.272;2023-04-03T15:38:06;2.80;;;1.75;;
77430;SDS011;66498;48.564;19.272;2023-04-03T15:40:32;2.00;;;1.70;;
77430;SDS011;66498;48.564;19.272;2023-04-03T15:42:58;1.90;;;1.30;;
77430;SDS011;66498;48.564;19.272;2023-04-03T15:45:23;2.78;;;1.73;;
77430;SDS011;66498;48.564;19.272;2023-04-03T15:47:49;2.92;;;1.85;;
77430;SDS011;66498;48.564;19.272;2023-04-03T15:50:15;2.78;;;1.80;;
77430;SDS011;66498;48.564;19.272;2023-04-03T15:52:41;3.40;;;2.00;;
77430;SDS011;66498;48.564;19.272;2023-04-03T15:55:07;1.88;;;1.67;;
77430;SDS011;66498;48.564;19.272;2023-04-03T15:57:32;2.03;;;1.63;;
77430;SDS011;66498;48.564;19.272;2023-04-03T15:59:58;2.08;;;1.67;;
77430;SDS011;66498;48.564;19.272;2023-04-03T16:02:23;3.08;;;1.92;;
77430;SDS011;66498;48.564;19.272;2023-04-03T16:04:53;2.45;;;1.98;;
77430;SDS011;66498;48.564;19.272;2023-04-03T16:07:19;2.75;;;1.83;;
77430;SDS011;66498;48.564;19.272;2023-04-03T16:09:45;1.63;;;1.50;;
77430;SDS011;66498;48.564;19.272;2023-04-03T16:12:11;5.20;;;1.90;;
77430;SDS011;66498;48.564;19.272;2023-04-03T16:14:37;2.50;;;2.00;;
77430;SDS011;66498;48.564;19.272;2023-04-03T16:17:02;4.85;;;1.65;;
77430;SDS011;66498;48.564;19.272;2023-04-03T16:19:28;2.78;;;2.22;;
77430;SDS011;66498;48.564;19.272;2023-04-03T16:21:54;3.75;;;1.65;;
77430;SDS011;66498;48.564;19.272;2023-04-03T16:24:21;4.28;;;2.33;;
77430;SDS011;66498;48.564;19.272;2023-04-03T16:26:46;2.67;;;2.00;;
77430;SDS011;66498;48.564;19.272;2023-04-03T16:29:12;2.22;;;1.60;;
77430;SDS011;66498;48.564;19.272;2023-04-03T16:31:38;1.73;;;1.58;;
77430;SDS011;66498;48.564;19.272;2023-04-03T16:34:04;2.35;;;1.73;;
77430;SDS011;66498;48.564;19.272;2023-04-03T16:36:30;2.30;;;1.73;;
77430;SDS011;66498;48.564;19.272;2023-04-03T16:38:56;2.42;;;1.90;;
77430;SDS011;66498;48.564;19.272;2023-04-03T16:41:22;2.83;;;2.15;;
77430;SDS011;66498;48.564;19.272;2023-04-03T16:43:47;3.60;;;2.15;;
77430;SDS011;66498;48.564;19.272;2023-04-03T16:46:14;1.92;;;1.63;;
77430;SDS011;66498;48.564;19.272;2023-04-03T16:48:40;2.38;;;1.88;;
77430;SDS011;66498;48.564;19.272;2023-04-03T16:51:06;3.47;;;2.22;;
77430;SDS011;66498;48.564;19.272;2023-04-03T16:53:31;3.50;;;2.28;;
77430;SDS011;66498;48.564;19.272;2023-04-03T16:55:57;6.13;;;2.30;;
77430;SDS011;66498;48.564;19.272;2023-04-03T16:58:24;3.05;;;2.38;;